Time;durP1;ratioP1;P1;durP2;ratioP2;P2;SDS_P1;SDS_P2;PMS_P1;PMS_P2;Temp;Humidity;BMP_temperature;BMP_pressure;BME280_temperature;BME280_humidity;BME280_pressure;Samples;Min_cycle;Max_cycle;Signal;HPM_P1;HPM_P2
2022/10/24 00:00:11;;;;;;;4.35;1.58;;;14.10;99.90;;;;;;5075851;28;20036;-82
2022/10/24 00:02:38;;;;;;;3.05;1.52;;;14.00;99.90;;;;;;5092360;28;20038;-81
2022/10/24 00:05:05;;;;;;;5.55;1.40;;;14.00;99.90;;;;;;5109423;28;20130;-81
2022/10/24 00:07:31;;;;;;;5.28;1.70;;;14.00;99.90;;;;;;5089102;28;20112;-81
2022/10/24 00:09:58;;;;;;;3.60;1.20;;;14.00;99.90;;;;;;5076661;28;20043;-81
2022/10/24 00:12:25;;;;;;;6.57;1.30;;;14.10;99.90;;;;;;5072615;28;20040;-81
2022/10/24 00:14:51;;;;;;;2.55;1.25;;;14.10;99.90;;;;;;5072234;28;20033;-81
2022/10/24 00:17:18;;;;;;;3.08;1.20;;;14.10;99.90;;;;;;5072400;28;20128;-81
2022/10/24 00:19:45;;;;;;;3.80;1.17;;;14.20;99.90;;;;;;5091291;28;20140;-81
2022/10/24 00:22:11;;;;;;;5.65;1.25;;;14.10;99.90;;;;;;5075634;28;20480;-81
2022/10/24 00:24:38;;;;;;;3.70;1.50;;;14.10;99.90;;;;;;5092441;28;20551;-82
2022/10/24 00:27:05;;;;;;;2.38;1.10;;;14.00;99.90;;;;;;5092597;28;20093;-81
2022/10/24 00:29:31;;;;;;;6.35;1.38;;;14.00;99.90;;;;;;5092355;28;20044;-81
2022/10/24 00:31:58;;;;;;;2.33;1.10;;;13.90;99.90;;;;;;5075421;28;20071;-81
2022/10/24 00:34:25;;;;;;;4.72;1.30;;;13.90;99.90;;;;;;5075539;28;20040;-82
2022/10/24 00:36:51;;;;;;;3.97;1.38;;;13.90;99.90;;;;;;5091993;28;20040;-81
2022/10/24 00:39:18;;;;;;;5.15;1.30;;;13.90;99.90;;;;;;5075734;28;20093;-81
2022/10/24 00:41:45;;;;;;;3.85;1.25;;;13.90;99.90;;;;;;5092159;28;20071;-81
2022/10/24 00:44:24;;;;;;;4.47;1.52;;;13.80;99.90;;;;;;5075476;28;20040;-81
2022/10/24 00:47:14;;;;;;;4.40;1.40;;;13.80;99.90;;;;;;5108465;28;20480;-81
2022/10/24 00:49:48;;;;;;;4.95;1.48;;;13.80;99.90;;;;;;5125720;28;20036;-81
2022/10/24 00:52:21;;;;;;;6.90;1.35;;;13.70;99.90;;;;;;5108896;28;20766;-82
2022/10/24 00:54:49;;;;;;;5.63;1.55;;;13.70;99.90;;;;;;5108269;28;20105;-81
2022/10/24 00:57:23;;;;;;;4.78;1.35;;;13.60;99.90;;;;;;5108759;28;20052;-82
2022/10/24 00:59:54;;;;;;;5.88;1.30;;;13.60;99.90;;;;;;5112207;28;20089;-81
2022/10/24 01:02:21;;;;;;;4.57;1.20;;;13.60;99.90;;;;;;5112458;28;20043;-81
2022/10/24 01:04:48;;;;;;;6.88;1.60;;;13.60;99.90;;;;;;5112255;28;20460;-82
2022/10/24 01:07:51;;;;;;;5.45;1.73;;;13.60;99.90;;;;;;5095704;28;20044;-81
2022/10/24 01:10:42;;;;;;;5.15;1.30;;;13.60;99.90;;;;;;5112489;28;20075;-81
2022/10/24 01:13:41;;;;;;;3.58;1.30;;;13.60;99.90;;;;;;5112539;28;20400;-81
2022/10/24 01:16:11;;;;;;;4.05;1.20;;;13.50;99.90;;;;;;5111897;28;20056;-81
2022/10/24 01:18:49;;;;;;;11.70;1.60;;;13.50;99.90;;;;;;5128618;28;20105;-82
2022/10/24 01:21:24;;;;;;;4.70;1.20;;;13.50;99.90;;;;;;5112383;28;20163;-81
2022/10/24 01:24:29;;;;;;;5.72;1.27;;;13.50;99.90;;;;;;5128635;28;20119;-81
2022/10/24 01:27:02;;;;;;;2.78;1.33;;;13.50;99.90;;;;;;5108721;28;20506;-81
2022/10/24 01:29:49;;;;;;;3.58;1.30;;;13.50;99.90;;;;;;5111950;28;20127;-81
2022/10/24 01:32:29;;;;;;;4.35;1.20;;;13.60;99.90;;;;;;5112154;28;20902;-81
2022/10/24 01:35:24;;;;;;;3.90;1.10;;;13.60;99.90;;;;;;5091766;28;20043;-81
2022/10/24 01:37:57;;;;;;;3.85;1.10;;;13.60;99.90;;;;;;5091658;28;20037;-81
2022/10/24 01:40:44;;;;;;;5.68;1.40;;;13.70;99.90;;;;;;5091880;28;20045;-82
2022/10/24 01:43:15;;;;;;;5.55;1.10;;;13.80;99.90;;;;;;5108344;28;20082;-82
2022/10/24 01:45:47;;;;;;;6.90;1.40;;;13.80;99.90;;;;;;5091506;28;20087;-82
2022/10/24 01:48:18;;;;;;;2.53;0.90;;;13.90;99.90;;;;;;5091453;28;20450;-82
2022/10/24 01:50:48;;;;;;;2.67;1.25;;;13.90;99.90;;;;;;5091154;28;20037;-81
2022/10/24 01:53:15;;;;;;;2.83;1.10;;;14.00;99.90;;;;;;5108112;28;20504;-82
2022/10/24 01:55:43;;;;;;;3.22;1.00;;;14.00;99.90;;;;;;5091169;28;20048;-82
2022/10/24 01:58:10;;;;;;;5.22;1.17;;;14.00;99.90;;;;;;5091414;28;20520;-81
2022/10/24 02:00:37;;;;;;;6.30;1.52;;;14.00;99.90;;;;;;5074942;28;20029;-81
2022/10/24 02:03:18;;;;;;;3.58;1.17;;;14.10;99.90;;;;;;5104781;28;20043;-81
2022/10/24 02:05:50;;;;;;;13.13;1.40;;;14.20;99.90;;;;;;5111409;28;20036;-82
2022/10/24 02:08:22;;;;;;;2.60;1.38;;;14.20;99.90;;;;;;5111237;28;20051;-82
2022/10/24 02:10:56;;;;;;;5.00;1.30;;;14.20;99.90;;;;;;5110493;28;20051;-81
2022/10/24 02:13:43;;;;;;;5.20;1.20;;;14.20;99.90;;;;;;5111111;28;20240;-82
2022/10/24 02:16:14;;;;;;;3.83;1.50;;;14.20;99.90;;;;;;5127793;28;20123;-82
2022/10/24 02:18:41;;;;;;;4.38;1.10;;;14.20;99.90;;;;;;5095023;28;20075;-82
2022/10/24 02:21:13;;;;;;;2.45;1.17;;;14.20;99.90;;;;;;5094070;28;20578;-81
2022/10/24 02:23:43;;;;;;;3.05;1.10;;;14.20;99.90;;;;;;5111114;28;20044;-81
2022/10/24 02:26:23;;;;;;;8.82;1.38;;;14.30;99.90;;;;;;5127421;28;20059;-82
2022/10/24 02:28:53;;;;;;;8.95;1.45;;;14.30;99.90;;;;;;5110640;28;20083;-82
2022/10/24 02:31:23;;;;;;;4.70;1.70;;;14.30;99.90;;;;;;5110762;28;20504;-82
2022/10/24 02:33:52;;;;;;;6.72;1.70;;;14.30;99.90;;;;;;5127517;28;20047;-82
2022/10/24 02:36:24;;;;;;;7.10;1.95;;;14.40;99.90;;;;;;5110432;28;20498;-81
2022/10/24 02:38:54;;;;;;;7.15;1.70;;;14.40;99.90;;;;;;5110593;28;20123;-82
2022/10/24 02:41:28;;;;;;;4.47;1.50;;;14.50;99.90;;;;;;5111081;28;20039;-81
2022/10/24 02:43:56;;;;;;;6.53;1.95;;;14.50;99.90;;;;;;5110548;28;20507;-81
2022/10/24 02:46:24;;;;;;;7.80;1.80;;;14.50;99.90;;;;;;5110690;28;20040;-82
2022/10/24 02:48:57;;;;;;;5.78;1.58;;;14.50;99.90;;;;;;5077216;28;20408;-82
2022/10/24 02:51:33;;;;;;;3.05;1.40;;;14.60;99.90;;;;;;5127338;28;20096;-81
2022/10/24 02:54:01;;;;;;;4.60;1.50;;;14.60;99.90;;;;;;5109963;28;20390;-81
2022/10/24 02:56:29;;;;;;;6.10;1.60;;;14.60;99.90;;;;;;5110423;28;20039;-81
2022/10/24 02:58:56;;;;;;;4.40;1.85;;;14.60;99.90;;;;;;5093615;28;20044;-81
2022/10/24 03:01:22;;;;;;;5.80;1.70;;;14.50;99.90;;;;;;5110284;28;20047;-81
2022/10/24 03:03:49;;;;;;;6.78;1.80;;;14.60;99.90;;;;;;5110163;28;20044;-81
2022/10/24 03:06:16;;;;;;;4.43;1.42;;;14.50;99.90;;;;;;5076666;28;20055;-81
2022/10/24 03:08:43;;;;;;;3.08;1.50;;;14.50;99.90;;;;;;5110067;28;20041;-82
2022/10/24 03:11:09;;;;;;;5.72;1.63;;;14.50;99.90;;;;;;5076542;28;20951;-81
2022/10/24 03:13:36;;;;;;;3.35;1.33;;;14.50;99.90;;;;;;5093827;28;20040;-82
2022/10/24 03:16:03;;;;;;;4.93;1.75;;;14.50;99.90;;;;;;5093178;28;20048;-82
2022/10/24 03:18:30;;;;;;;9.77;1.60;;;14.50;99.90;;;;;;5093701;28;20032;-81
2022/10/24 03:20:57;;;;;;;6.38;1.73;;;14.50;99.90;;;;;;5092805;28;20048;-81
2022/10/24 03:23:27;;;;;;;4.85;1.58;;;14.50;99.90;;;;;;5076446;28;20044;-82
2022/10/24 03:25:58;;;;;;;6.15;1.90;;;14.40;99.90;;;;;;5093869;28;20048;-81
2022/10/24 03:28:25;;;;;;;4.35;1.40;;;14.40;99.90;;;;;;5093282;28;20085;-82
2022/10/24 03:30:52;;;;;;;7.40;1.75;;;14.40;99.90;;;;;;5076692;28;20036;-82
2022/10/24 03:33:19;;;;;;;4.70;1.42;;;14.30;99.90;;;;;;5109525;28;20805;-82
2022/10/24 03:35:45;;;;;;;6.82;1.38;;;14.40;99.90;;;;;;5076318;28;20130;-82
2022/10/24 03:38:12;;;;;;;9.95;1.80;;;14.40;99.90;;;;;;5076123;28;20035;-81
2022/10/24 03:40:39;;;;;;;7.50;1.73;;;14.40;99.90;;;;;;5092927;28;20032;-81
2022/10/24 03:43:05;;;;;;;4.57;1.40;;;14.40;99.90;;;;;;5092897;28;20555;-81
2022/10/24 03:45:32;;;;;;;5.30;1.60;;;14.40;99.90;;;;;;5072792;28;20037;-81
2022/10/24 03:47:59;;;;;;;3.88;1.73;;;14.40;99.90;;;;;;5089667;28;20071;-81
2022/10/24 03:50:25;;;;;;;3.38;1.42;;;14.40;99.90;;;;;;5089046;28;20114;-82
2022/10/24 03:52:52;;;;;;;6.78;1.40;;;14.40;99.90;;;;;;5072855;28;20037;-81
2022/10/24 03:55:19;;;;;;;4.35;1.70;;;14.40;99.90;;;;;;5057978;28;20049;-82
2022/10/24 03:57:46;;;;;;;5.82;1.60;;;14.40;99.90;;;;;;5093191;28;20073;-81
2022/10/24 04:00:13;;;;;;;4.05;1.40;;;14.40;99.90;;;;;;5076202;28;20028;-81
2022/10/24 04:02:40;;;;;;;5.38;1.70;;;14.40;99.90;;;;;;5092811;28;20040;-81
2022/10/24 04:05:07;;;;;;;5.60;1.45;;;14.40;99.90;;;;;;5092519;28;20101;-81
2022/10/24 04:07:34;;;;;;;6.32;1.77;;;14.40;99.90;;;;;;5092963;28;20123;-82
2022/10/24 04:10:01;;;;;;;4.53;1.80;;;14.40;99.90;;;;;;5076256;28;20189;-81
2022/10/24 04:12:27;;;;;;;4.45;1.50;;;14.40;99.90;;;;;;5108804;28;20063;-81
2022/10/24 04:14:54;;;;;;;6.22;1.75;;;14.40;99.90;;;;;;5092259;28;20040;-82
2022/10/24 04:17:21;;;;;;;4.53;1.52;;;14.40;99.90;;;;;;5091781;28;20118;-82
2022/10/24 04:19:48;;;;;;;13.95;1.60;;;14.40;99.90;;;;;;5125711;28;20109;-81
2022/10/24 04:22:15;;;;;;;3.90;1.60;;;14.40;99.90;;;;;;5108376;28;20046;-81
2022/10/24 04:24:41;;;;;;;4.55;1.52;;;14.50;99.90;;;;;;5092448;28;20036;-81
2022/10/24 04:27:08;;;;;;;4.05;1.60;;;14.50;99.90;;;;;;5091944;28;20075;-81
2022/10/24 04:29:35;;;;;;;6.63;1.70;;;14.50;99.90;;;;;;5075978;28;20389;-81
2022/10/24 04:32:02;;;;;;;9.35;1.63;;;14.50;99.90;;;;;;5092467;28;20032;-81
2022/10/24 04:34:28;;;;;;;6.57;1.50;;;14.40;99.90;;;;;;5112609;28;20036;-81
2022/10/24 04:36:55;;;;;;;5.05;1.55;;;14.40;99.90;;;;;;5092676;28;20039;-81
2022/10/24 04:39:22;;;;;;;8.40;1.33;;;14.40;99.90;;;;;;5075949;28;20040;-81
2022/10/24 04:41:48;;;;;;;6.55;1.40;;;14.50;99.90;;;;;;5092842;28;20124;-81
2022/10/24 04:44:15;;;;;;;8.07;1.85;;;14.40;99.90;;;;;;5075982;28;20094;-81
2022/10/24 04:46:42;;;;;;;5.88;1.15;;;14.40;99.90;;;;;;5076115;28;20051;-81
2022/10/24 04:49:08;;;;;;;9.80;1.67;;;14.40;99.90;;;;;;5075960;28;20495;-81
2022/10/24 04:51:35;;;;;;;5.68;1.58;;;14.40;99.90;;;;;;5099824;28;20036;-81
2022/10/24 04:54:02;;;;;;;9.95;1.52;;;14.30;99.90;;;;;;5079228;28;20036;-81
2022/10/24 04:56:29;;;;;;;4.28;1.38;;;14.30;99.90;;;;;;5079131;28;20040;-81
2022/10/24 04:58:55;;;;;;;10.10;1.90;;;14.20;99.90;;;;;;5070716;28;20048;-81
2022/10/24 05:01:22;;;;;;;3.67;1.40;;;14.20;99.90;;;;;;5059858;28;20035;-81
2022/10/24 05:03:49;;;;;;;3.78;1.27;;;14.10;99.90;;;;;;5079357;28;20032;-81
2022/10/24 05:06:15;;;;;;;5.90;1.40;;;14.10;99.90;;;;;;5111980;28;20044;-81
2022/10/24 05:08:42;;;;;;;3.35;1.38;;;14.10;99.90;;;;;;5112298;28;20040;-81
2022/10/24 05:11:10;;;;;;;5.00;1.75;;;14.10;99.90;;;;;;5095681;28;20047;-81
2022/10/24 05:13:38;;;;;;;6.65;1.50;;;14.00;99.90;;;;;;5095916;28;20075;-81
2022/10/24 05:16:05;;;;;;;4.63;1.33;;;14.00;99.90;;;;;;5112349;28;20407;-81
2022/10/24 05:18:32;;;;;;;6.32;1.63;;;14.10;99.90;;;;;;5128667;28;20038;-81
2022/10/24 05:20:59;;;;;;;2.90;1.35;;;14.10;99.90;;;;;;5095506;28;20139;-81
2022/10/24 05:23:26;;;;;;;4.53;1.50;;;14.10;99.90;;;;;;5115321;28;20407;-81
2022/10/24 05:25:53;;;;;;;6.50;1.25;;;14.10;99.90;;;;;;5082638;28;20119;-81
2022/10/24 05:28:20;;;;;;;4.00;1.25;;;14.20;99.90;;;;;;5095555;28;20047;-81
2022/10/24 05:30:47;;;;;;;3.85;1.20;;;14.20;99.90;;;;;;5095997;28;20050;-81
2022/10/24 05:33:13;;;;;;;5.63;2.00;;;14.20;99.90;;;;;;5095317;28;20036;-81
2022/10/24 05:35:40;;;;;;;5.60;1.33;;;14.20;99.90;;;;;;5111965;28;20036;-81
2022/10/24 05:38:07;;;;;;;5.80;1.58;;;14.10;99.90;;;;;;5112006;28;20036;-81
2022/10/24 05:40:34;;;;;;;7.80;1.45;;;14.10;99.90;;;;;;5094994;28;20731;-81
2022/10/24 05:43:00;;;;;;;3.53;1.35;;;14.10;99.90;;;;;;5095239;28;20040;-81
2022/10/24 05:45:27;;;;;;;4.55;1.38;;;14.10;99.90;;;;;;5110499;28;20044;-81
2022/10/24 05:47:54;;;;;;;6.85;1.25;;;14.00;99.90;;;;;;5111542;28;20055;-81
2022/10/24 05:50:21;;;;;;;4.30;1.10;;;14.00;99.90;;;;;;5078139;28;20039;-81
2022/10/24 05:52:48;;;;;;;5.43;1.10;;;14.00;99.90;;;;;;5095010;28;20039;-81
2022/10/24 05:55:14;;;;;;;2.65;1.02;;;14.00;99.90;;;;;;5078297;28;20123;-81
2022/10/24 05:57:42;;;;;;;5.60;1.20;;;14.00;99.90;;;;;;5094529;28;20155;-82
2022/10/24 06:00:12;;;;;;;3.05;1.17;;;14.00;99.90;;;;;;5074212;28;20398;-81
2022/10/24 06:02:39;;;;;;;3.92;1.42;;;14.00;99.90;;;;;;5103468;28;20040;-81
2022/10/24 06:05:07;;;;;;;5.70;1.00;;;14.00;99.90;;;;;;5058229;28;20059;-81
2022/10/24 06:07:34;;;;;;;5.63;1.10;;;14.00;99.90;;;;;;5097414;28;20496;-81
2022/10/24 06:10:02;;;;;;;4.30;1.25;;;14.00;99.90;;;;;;5110696;28;20725;-80
2022/10/24 06:12:28;;;;;;;4.40;1.52;;;14.00;99.90;;;;;;5110371;28;20032;-81
2022/10/24 06:14:57;;;;;;;3.85;1.20;;;14.00;99.90;;;;;;5077443;28;20568;-81
2022/10/24 06:17:23;;;;;;;4.93;1.30;;;13.90;99.90;;;;;;5110076;28;20036;-81
2022/10/24 06:19:50;;;;;;;5.47;1.10;;;13.90;99.90;;;;;;5093167;28;20056;-81
2022/10/24 06:22:18;;;;;;;3.75;1.00;;;13.90;99.90;;;;;;5081271;28;20473;-81
2022/10/24 06:24:44;;;;;;;8.00;1.02;;;14.00;99.90;;;;;;5112215;28;20401;-81
2022/10/24 06:27:12;;;;;;;3.42;1.20;;;14.10;99.90;;;;;;5082830;28;20127;-81
2022/10/24 06:29:38;;;;;;;5.10;1.00;;;14.10;99.90;;;;;;5121368;28;20039;-81
2022/10/24 06:32:05;;;;;;;3.13;1.10;;;14.20;99.90;;;;;;5062335;28;20040;-80
2022/10/24 06:34:32;;;;;;;5.68;1.50;;;14.20;99.90;;;;;;5093071;28;20092;-81
2022/10/24 06:36:59;;;;;;;5.20;1.20;;;14.20;99.90;;;;;;5108121;28;20043;-81
2022/10/24 06:39:26;;;;;;;8.38;1.20;;;14.20;99.90;;;;;;5077345;28;20122;-81
2022/10/24 06:41:52;;;;;;;3.65;0.95;;;14.30;99.90;;;;;;5074180;28;20037;-81
2022/10/24 06:44:19;;;;;;;6.53;1.15;;;14.30;99.90;;;;;;5073896;28;20038;-81
2022/10/24 06:46:46;;;;;;;2.95;0.95;;;14.30;99.90;;;;;;5060495;28;20134;-81
2022/10/24 06:49:13;;;;;;;3.13;1.08;;;14.40;99.90;;;;;;5087725;28;20047;-81
2022/10/24 06:51:40;;;;;;;5.65;0.98;;;14.30;99.90;;;;;;5071818;28;20036;-80
2022/10/24 06:54:07;;;;;;;2.63;0.90;;;14.40;99.90;;;;;;5109230;28;20048;-81
2022/10/24 06:56:34;;;;;;;6.28;1.23;;;14.40;99.90;;;;;;5127049;28;20051;-80
2022/10/24 06:59:01;;;;;;;6.97;1.13;;;14.40;99.90;;;;;;5077037;28;20032;-80
2022/10/24 07:01:28;;;;;;;2.28;0.98;;;14.40;99.90;;;;;;5127049;28;20039;-80
2022/10/24 07:03:54;;;;;;;8.57;1.60;;;14.30;99.90;;;;;;5090492;28;20075;-80
2022/10/24 07:06:26;;;;;;;9.48;1.42;;;14.40;99.90;;;;;;5089506;28;20036;-80
2022/10/24 07:08:55;;;;;;;5.40;1.10;;;14.40;99.90;;;;;;5096427;28;20492;-80
2022/10/24 07:11:22;;;;;;;5.90;1.17;;;14.40;99.90;;;;;;5100548;28;20488;-81
2022/10/24 07:13:49;;;;;;;2.92;0.95;;;14.50;99.90;;;;;;5109412;28;20522;-81
2022/10/24 07:16:17;;;;;;;4.22;1.38;;;14.50;99.90;;;;;;5109858;28;20040;-80
2022/10/24 07:18:44;;;;;;;5.03;1.20;;;14.50;99.90;;;;;;5092801;28;20689;-81
2022/10/24 07:21:20;;;;;;;3.55;1.23;;;14.50;99.90;;;;;;5092923;28;20154;-81
2022/10/24 07:23:47;;;;;;;4.05;0.98;;;14.50;99.90;;;;;;5108816;28;20139;-81
2022/10/24 07:26:15;;;;;;;6.85;1.30;;;14.60;99.90;;;;;;5109475;28;20123;-80
2022/10/24 07:28:45;;;;;;;2.75;0.98;;;14.50;99.90;;;;;;5109248;28;20471;-81
2022/10/24 07:31:20;;;;;;;4.85;1.10;;;14.60;99.90;;;;;;5085037;28;20041;-81
2022/10/24 07:33:47;;;;;;;6.80;1.23;;;14.70;99.90;;;;;;5116072;28;21000;-81
2022/10/24 07:36:19;;;;;;;6.20;1.85;;;14.80;99.90;;;;;;5092800;28;20036;-81
2022/10/24 07:38:47;;;;;;;3.05;1.33;;;14.90;99.90;;;;;;5109214;28;20067;-81
2022/10/24 07:41:14;;;;;;;3.10;0.88;;;14.90;99.90;;;;;;5062567;28;20796;-81
2022/10/24 07:43:40;;;;;;;3.55;0.95;;;15.00;99.90;;;;;;5080482;28;20032;-81
2022/10/24 07:46:09;;;;;;;4.25;0.93;;;15.00;99.90;;;;;;5109101;28;20514;-81
2022/10/24 07:48:37;;;;;;;4.57;0.95;;;15.00;99.90;;;;;;5109254;28;20044;-81
2022/10/24 07:51:05;;;;;;;6.80;0.90;;;15.10;99.90;;;;;;5109631;28;20082;-81
2022/10/24 07:53:32;;;;;;;3.53;1.13;;;15.10;99.90;;;;;;5108869;28;20902;-81
2022/10/24 07:55:59;;;;;;;4.03;0.90;;;15.10;99.90;;;;;;5108663;28;20135;-80
2022/10/24 07:58:27;;;;;;;5.20;0.70;;;15.00;99.90;;;;;;5109182;28;20035;-81
2022/10/24 08:00:54;;;;;;;7.10;1.10;;;15.00;99.90;;;;;;5125504;28;20032;-80
2022/10/24 08:03:20;;;;;;;2.97;1.05;;;15.10;99.90;;;;;;5091782;28;20042;-80
2022/10/24 08:05:47;;;;;;;5.57;1.20;;;15.10;99.90;;;;;;5071151;28;20051;-79
2022/10/24 08:08:14;;;;;;;8.77;0.85;;;15.10;99.90;;;;;;5079578;28;20519;-80
2022/10/24 08:10:40;;;;;;;4.28;1.10;;;15.10;99.90;;;;;;5124467;28;20062;-80
2022/10/24 08:13:07;;;;;;;5.45;1.00;;;15.20;99.90;;;;;;5108681;28;20128;-80
2022/10/24 08:15:34;;;;;;;2.97;0.88;;;15.20;99.90;;;;;;5091861;28;20043;-80
2022/10/24 08:18:00;;;;;;;4.90;1.40;;;15.30;99.90;;;;;;5108539;28;20040;-80
2022/10/24 08:20:28;;;;;;;3.50;0.90;;;15.30;99.90;;;;;;5091310;28;20060;-80
2022/10/24 08:22:55;;;;;;;3.40;0.90;;;15.40;99.90;;;;;;5100506;28;20044;-80
2022/10/24 08:25:22;;;;;;;2.40;0.90;;;15.40;99.90;;;;;;5088604;28;20042;-82
2022/10/24 08:27:49;;;;;;;3.55;0.82;;;15.50;99.90;;;;;;5063173;28;20377;-79
2022/10/24 08:30:16;;;;;;;2.20;0.70;;;15.60;99.90;;;;;;5083068;28;20067;-81
2022/10/24 08:32:43;;;;;;;5.43;1.05;;;15.60;99.90;;;;;;5079194;28;20049;-81
2022/10/24 08:35:09;;;;;;;4.03;0.98;;;15.60;99.90;;;;;;5069769;28;20457;-80
2022/10/24 08:37:39;;;;;;;3.03;1.00;;;15.60;99.90;;;;;;5071385;28;20047;-80
2022/10/24 08:40:08;;;;;;;5.20;0.95;;;15.60;99.90;;;;;;5088597;28;20253;-80
2022/10/24 08:42:35;;;;;;;3.53;1.08;;;15.70;99.90;;;;;;5071655;28;20484;-80
2022/10/24 08:45:02;;;;;;;5.03;1.00;;;15.70;99.90;;;;;;5071702;28;20044;-80
2022/10/24 08:47:48;;;;;;;8.20;1.17;;;15.80;99.90;;;;;;5096258;28;20040;-80
2022/10/24 08:50:32;;;;;;;9.00;1.38;;;15.90;99.90;;;;;;5125247;28;20070;-80
2022/10/24 08:53:06;;;;;;;6.55;1.23;;;15.90;99.90;;;;;;5115633;28;20044;-80
2022/10/24 08:55:44;;;;;;;3.15;0.98;;;15.90;99.90;;;;;;5119556;28;20098;-81
2022/10/24 08:58:24;;;;;;;7.65;1.02;;;15.90;99.90;;;;;;5125151;28;20122;-80
2022/10/24 09:00:55;;;;;;;8.65;2.17;;;16.00;99.90;;;;;;5124479;28;20033;-80
2022/10/24 09:03:34;;;;;;;4.72;0.88;;;16.00;99.90;;;;;;5108148;28;20373;-80
2022/10/24 09:06:16;;;;;;;6.68;1.23;;;16.10;99.90;;;;;;5111900;28;20032;-80
2022/10/24 09:08:49;;;;;;;4.70;0.80;;;16.00;99.90;;;;;;5124797;28;20059;-80
2022/10/24 09:11:40;;;;;;;3.33;0.70;;;16.10;99.90;;;;;;5107737;28;20048;-80
2022/10/24 09:14:28;;;;;;;4.78;0.88;;;16.10;99.90;;;;;;5107950;28;20186;-81
2022/10/24 09:17:22;;;;;;;5.88;0.90;;;16.20;99.90;;;;;;5124169;28;20147;-80
2022/10/24 09:19:56;;;;;;;3.58;1.00;;;16.20;99.90;;;;;;5105139;28;20043;-80
2022/10/24 09:22:26;;;;;;;4.38;0.90;;;16.30;99.90;;;;;;5112171;28;20043;-80
2022/10/24 09:25:05;;;;;;;4.85;1.00;;;16.20;99.90;;;;;;5109766;28;20430;-81
2022/10/24 09:27:38;;;;;;;10.05;1.38;;;16.20;99.90;;;;;;5128644;28;20036;-80
2022/10/24 09:30:14;;;;;;;4.30;1.30;;;16.20;99.90;;;;;;5127473;28;20456;-80
2022/10/24 09:32:41;;;;;;;;;;;16.20;99.90;;;;;;5128172;28;20907;-80
2022/10/24 09:35:29;;;;;;;3.50;0.90;;;16.20;99.90;;;;;;5110957;28;19916;-81
2022/10/24 09:37:58;;;;;;;7.95;1.15;;;16.20;99.90;;;;;;5106962;28;20468;-81
2022/10/24 09:40:32;;;;;;;2.38;0.88;;;16.20;99.90;;;;;;5128669;28;20142;-81
2022/10/24 09:43:15;;;;;;;6.63;1.23;;;16.20;99.90;;;;;;5110597;28;20416;-80
2022/10/24 09:45:47;;;;;;;5.75;0.90;;;16.30;99.90;;;;;;5110877;28;20048;-81
2022/10/24 09:48:47;;;;;;;4.78;1.10;;;16.30;99.90;;;;;;5111928;28;20130;-82
2022/10/24 09:51:29;;;;;;;5.38;1.25;;;16.40;99.90;;;;;;5110197;28;20065;-81
2022/10/24 09:54:01;;;;;;;8.02;0.88;;;16.40;99.90;;;;;;5093795;28;20040;-81
2022/10/24 09:56:38;;;;;;;6.90;1.13;;;16.40;99.90;;;;;;5106187;28;20501;-81
2022/10/24 09:59:40;;;;;;;5.63;0.70;;;16.40;99.90;;;;;;5122525;28;20090;-81
2022/10/24 10:02:13;;;;;;;4.38;1.02;;;16.40;99.90;;;;;;5109929;28;20139;-81
2022/10/24 10:04:41;;;;;;;4.13;0.95;;;16.40;99.90;;;;;;5112850;28;20732;-81
2022/10/24 10:07:11;;;;;;;4.10;0.90;;;16.40;99.90;;;;;;5103904;28;20046;-81
2022/10/24 10:09:45;;;;;;;5.30;0.90;;;16.40;99.90;;;;;;5114204;28;20133;-81
2022/10/24 10:12:30;;;;;;;6.20;1.00;;;16.40;99.90;;;;;;5127773;28;20070;-80
2022/10/24 10:15:00;;;;;;;4.07;0.98;;;16.50;99.90;;;;;;5126983;28;20500;-81
2022/10/24 10:17:30;;;;;;;5.22;1.13;;;16.50;99.90;;;;;;5110504;28;20424;-81
2022/10/24 10:19:57;;;;;;;6.05;0.90;;;16.50;99.90;;;;;;5107301;28;20105;-81
2022/10/24 10:22:28;;;;;;;8.48;1.13;;;16.60;99.90;;;;;;5093960;28;20043;-81
2022/10/24 10:24:56;;;;;;;5.60;1.13;;;16.70;99.90;;;;;;5110337;28;20071;-81
2022/10/24 10:27:29;;;;;;;3.35;0.98;;;16.90;99.90;;;;;;5111143;28;20497;-81
2022/10/24 10:30:15;;;;;;;6.43;0.70;;;16.90;99.90;;;;;;5110801;28;20040;-81
2022/10/24 10:32:42;;;;;;;3.38;0.70;;;16.90;99.90;;;;;;5110363;28;20051;-81
2022/10/24 10:35:47;;;;;;;3.80;0.90;;;17.00;99.90;;;;;;5109951;28;20066;-81
2022/10/24 10:38:42;;;;;;;2.00;0.57;;;17.10;99.90;;;;;;5104003;28;20071;-81
2022/10/24 10:41:15;;;;;;;3.35;1.23;;;17.10;99.90;;;;;;5108927;28;20044;-82
2022/10/24 10:43:41;;;;;;;2.95;0.80;;;17.00;99.90;;;;;;5126665;28;20083;-81
2022/10/24 10:46:31;;;;;;;5.38;0.70;;;17.00;99.90;;;;;;5109713;28;20067;-81
2022/10/24 10:49:23;;;;;;;2.05;0.60;;;16.90;99.90;;;;;;5100747;28;20123;-81
2022/10/24 10:52:04;;;;;;;3.60;0.70;;;16.90;99.90;;;;;;5108837;28;20048;-81
2022/10/24 10:54:56;;;;;;;5.10;0.80;;;16.90;99.90;;;;;;5127161;28;20089;-81
2022/10/24 10:57:55;;;;;;;3.88;0.80;;;16.80;99.90;;;;;;5109733;28;20129;-81
2022/10/24 11:00:39;;;;;;;2.67;0.60;;;16.70;99.90;;;;;;5142218;28;20044;-81
2022/10/24 11:03:39;;;;;;;2.50;0.77;;;16.70;99.90;;;;;;5109607;28;20035;-81
2022/10/24 11:06:29;;;;;;;5.15;0.98;;;16.70;99.90;;;;;;5101357;28;20389;-81
2022/10/24 11:09:22;;;;;;;1.17;0.50;;;16.70;99.90;;;;;;5109639;28;20433;-81
2022/10/24 11:12:15;;;;;;;2.65;0.60;;;16.70;99.90;;;;;;5125232;28;20039;-81
2022/10/24 11:14:46;;;;;;;2.72;0.70;;;16.80;99.90;;;;;;5104103;28;20062;-81
2022/10/24 11:17:24;;;;;;;3.55;0.75;;;16.80;99.90;;;;;;5125893;28;20115;-91
2022/10/24 11:20:12;;;;;;;4.45;0.90;;;16.90;99.90;;;;;;5089003;28;20053;-82
2022/10/24 11:22:53;;;;;;;5.07;0.70;;;17.00;99.90;;;;;;5091793;28;20485;-82
2022/10/24 11:25:41;;;;;;;2.80;0.90;;;17.10;99.90;;;;;;5109861;28;20087;-82
2022/10/24 11:28:49;;;;;;;2.03;0.57;;;17.20;99.90;;;;;;5109665;28;20107;-86
2022/10/24 11:31:40;;;;;;;5.45;1.08;;;17.10;99.90;;;;;;5092477;28;20086;-82
2022/10/24 11:34:16;;;;;;;4.43;0.82;;;17.00;99.90;;;;;;5105123;28;20079;-82
2022/10/24 11:37:15;;;;;;;7.60;0.80;;;17.00;99.90;;;;;;5124862;28;20040;-82
2022/10/24 11:40:03;;;;;;;5.43;1.00;;;17.00;99.90;;;;;;5104122;28;20036;-82
2022/10/24 11:42:59;;;;;;;4.60;0.60;;;16.90;99.90;;;;;;5108816;28;20032;-82
2022/10/24 11:45:38;;;;;;;2.95;0.55;;;16.80;99.90;;;;;;5081007;28;20078;-82
2022/10/24 11:48:18;;;;;;;2.35;0.80;;;16.70;99.90;;;;;;5109272;28;20059;-82
2022/10/24 11:50:59;;;;;;;2.55;0.50;;;16.70;99.90;;;;;;5126764;28;20036;-82
2022/10/24 11:53:32;;;;;;;4.75;0.82;;;16.70;99.90;;;;;;5109537;28;20096;-81
2022/10/24 11:56:22;;;;;;;5.03;0.65;;;16.70;99.90;;;;;;5109433;28;20071;-82
2022/10/24 11:58:58;;;;;;;2.83;0.60;;;16.60;99.90;;;;;;5126580;28;20044;-82
2022/10/24 12:01:33;;;;;;;1.48;0.52;;;16.60;99.90;;;;;;5110048;28;20043;-82
2022/10/24 12:04:09;;;;;;;7.38;0.90;;;16.70;99.90;;;;;;5109240;28;20097;-82
2022/10/24 12:06:44;;;;;;;;;;;16.70;99.90;;;;;;5109879;28;20515;-82
2022/10/24 12:09:24;;;;;;;4.60;0.50;;;16.70;99.90;;;;;;5109539;28;20330;-82
2022/10/24 12:12:28;;;;;;;1.92;0.70;;;16.80;99.90;;;;;;5109442;28;20044;-82
2022/10/24 12:15:01;;;;;;;2.95;0.80;;;16.90;99.90;;;;;;5089019;28;20174;-82
2022/10/24 12:17:57;;;;;;;3.20;0.70;;;16.90;99.90;;;;;;5104339;28;20036;-82
2022/10/24 12:20:25;;;;;;;3.33;0.73;;;16.90;99.90;;;;;;5126046;28;20044;-82
2022/10/24 12:22:53;;;;;;;2.30;0.47;;;16.90;99.90;;;;;;5089906;28;20036;-81
2022/10/24 12:25:37;;;;;;;4.00;0.70;;;16.90;99.90;;;;;;5080032;28;20072;-82
2022/10/24 12:28:11;;;;;;;2.65;0.73;;;17.00;99.90;;;;;;5093041;28;20222;-82
2022/10/24 12:30:38;;;;;;;3.47;0.73;;;17.00;99.90;;;;;;5091548;28;20040;-82
2022/10/24 12:33:25;;;;;;;1.15;0.32;;;17.00;99.90;;;;;;5090814;28;20138;-82
2022/10/24 12:35:56;;;;;;;3.83;0.60;;;17.00;99.90;;;;;;5122535;28;20044;-82
2022/10/24 12:38:28;;;;;;;5.10;0.75;;;17.10;99.90;;;;;;5092292;28;20039;-82
2022/10/24 12:41:21;;;;;;;2.60;0.70;;;17.10;99.90;;;;;;5108177;28;20036;-82
2022/10/24 12:43:49;;;;;;;7.40;0.80;;;17.00;99.90;;;;;;5104896;28;20515;-82
2022/10/24 12:46:15;;;;;;;1.80;0.57;;;16.90;99.90;;;;;;5102617;28;20485;-81
2022/10/24 12:48:57;;;;;;;5.10;0.70;;;16.80;99.90;;;;;;5098660;28;20051;-82
2022/10/24 12:51:38;;;;;;;3.15;0.70;;;16.80;99.90;;;;;;5106893;28;20036;-82
2022/10/24 12:54:10;;;;;;;3.13;1.10;;;16.80;99.90;;;;;;5081058;28;20043;-82
2022/10/24 12:56:50;;;;;;;2.92;0.80;;;16.70;99.90;;;;;;5108565;28;20045;-82
2022/10/24 12:59:19;;;;;;;1.42;0.65;;;16.70;99.90;;;;;;5102342;28;20047;-81
2022/10/24 13:01:48;;;;;;;0.85;0.40;;;16.60;99.90;;;;;;5110533;28;20082;-81
2022/10/24 13:04:33;;;;;;;4.63;0.73;;;16.70;99.90;;;;;;5116479;28;20088;-80
2022/10/24 13:07:19;;;;;;;5.03;0.85;;;16.70;99.90;;;;;;5110257;28;20036;-82
2022/10/24 13:10:08;;;;;;;1.40;0.60;;;16.70;99.90;;;;;;5109925;28;21014;-82
2022/10/24 13:12:54;;;;;;;1.33;0.70;;;16.70;99.90;;;;;;5123021;28;20050;-82
2022/10/24 13:15:45;;;;;;;2.55;0.70;;;16.60;99.90;;;;;;5108364;28;20825;-83